createdAt,value
2022-12-24T00:00:06.656Z,99964.78
2022-12-24T00:02:35.780Z,99966.81
2022-12-24T00:05:04.886Z,99978.31
2022-12-24T00:07:35.235Z,99975.19
2022-12-24T00:10:04.226Z,99977.28
2022-12-24T00:12:34.103Z,99974.50
2022-12-24T00:15:02.529Z,99977.09
2022-12-24T00:17:30.740Z,99976.94
2022-12-24T00:19:59.936Z,99998.38
2022-12-24T00:22:28.425Z,99996.19
2022-12-24T00:24:59.073Z,99993.25
2022-12-24T00:27:27.351Z,99998.88
2022-12-24T00:29:58.862Z,100008.88
2022-12-24T00:32:27.041Z,100005.03
2022-12-24T00:34:55.237Z,100010.44
2022-12-24T00:37:23.590Z,100028.19
2022-12-24T00:39:51.711Z,100032.09
2022-12-24T00:42:20.999Z,100028.91
2022-12-24T00:44:49.317Z,100033.75
2022-12-24T00:47:20.714Z,100033.75
2022-12-24T00:49:49.195Z,100041.63
2022-12-24T00:52:17.759Z,100030.38
2022-12-24T00:54:47.569Z,100028.75
2022-12-24T00:57:18.057Z,100026.69
2022-12-24T00:59:46.650Z,100029.31
2022-12-24T01:02:15.213Z,100032.06
2022-12-24T01:05:02.392Z,100033.56
2022-12-24T01:07:31.655Z,100030.56
2022-12-24T01:10:00.151Z,100037.19
2022-12-24T01:12:29.405Z,100044.88
2022-12-24T01:14:58.014Z,100039.13
2022-12-24T01:17:26.818Z,100033.41
2022-12-24T01:19:56.782Z,100040.38
2022-12-24T01:22:25.257Z,100048.31
2022-12-24T01:24:53.394Z,100056.03
2022-12-24T01:27:22.072Z,100054.53
2022-12-24T01:29:52.596Z,100067.16
2022-12-24T01:32:20.716Z,100074.00
2022-12-24T01:34:51.812Z,100082.72
2022-12-24T01:37:21.524Z,100083.25
2022-12-24T01:39:51.071Z,100091.94
2022-12-24T01:42:37.533Z,100094.94
2022-12-24T01:45:44.923Z,100090.91
2022-12-24T01:48:18.643Z,100107.72
2022-12-24T01:50:47.867Z,100114.88
2022-12-24T01:53:18.239Z,100130.00
2022-12-24T01:55:48.445Z,100132.97
2022-12-24T01:58:19.064Z,100135.94
2022-12-24T02:00:48.639Z,100133.53
2022-12-24T02:03:16.945Z,100133.19
2022-12-24T02:05:49.579Z,100144.59
2022-12-24T02:08:19.805Z,100154.22
2022-12-24T02:10:49.382Z,100164.88
2022-12-24T02:13:21.679Z,100168.19
2022-12-24T02:16:06.179Z,100165.44
2022-12-24T02:18:44.454Z,100166.91
2022-12-24T02:21:51.620Z,100177.25
2022-12-24T02:24:54.060Z,100176.13
2022-12-24T02:27:50.307Z,100174.31
2022-12-24T02:30:23.132Z,100171.34
2022-12-24T02:33:07.430Z,100163.97
2022-12-24T02:35:44.940Z,100183.53
2022-12-24T02:38:19.089Z,100174.13
2022-12-24T02:40:52.144Z,100171.34
2022-12-24T02:43:26.237Z,100174.47
2022-12-24T02:46:00.984Z,100174.66
2022-12-24T02:48:32.066Z,100161.75
2022-12-24T02:51:05.208Z,100172.81
2022-12-24T02:53:36.477Z,100164.88
2022-12-24T02:56:25.784Z,100169.50
2022-12-24T02:59:10.435Z,100182.59
2022-12-24T03:01:52.041Z,100186.06
2022-12-24T03:04:40.384Z,100182.38
2022-12-24T03:07:21.385Z,100178.72
2022-12-24T03:09:58.271Z,100191.44
2022-12-24T03:12:35.582Z,100200.31
2022-12-24T03:15:08.103Z,100187.50
2022-12-24T03:17:41.991Z,100196.75
2022-12-24T03:20:14.830Z,100203.00
2022-12-24T03:22:44.859Z,100208.00
2022-12-24T03:25:13.368Z,100213.72
2022-12-24T03:27:42.170Z,100211.69
2022-12-24T03:30:14.784Z,100211.69
2022-12-24T03:32:45.247Z,100204.88
2022-12-24T03:35:16.401Z,100225.38
2022-12-24T03:37:47.115Z,100220.56
2022-12-24T03:40:15.727Z,100219.81
2022-12-24T03:42:44.559Z,100230.34
2022-12-24T03:45:12.863Z,100219.44
2022-12-24T03:47:41.118Z,100219.66
2022-12-24T03:50:18.489Z,100217.03
2022-12-24T03:52:47.283Z,100215.38
2022-12-24T03:55:17.711Z,100210.59
2022-12-24T03:57:46.357Z,100207.84
2022-12-24T04:00:17.277Z,100223.84
2022-12-24T04:02:48.760Z,100224.63
2022-12-24T04:05:21.191Z,100213.28
2022-12-24T04:07:49.439Z,100212.38
2022-12-24T04:10:18.057Z,100214.41
2022-12-24T04:12:46.181Z,100226.22
2022-12-24T04:15:14.926Z,100221.81
2022-12-24T04:17:43.073Z,100224.56
2022-12-24T04:20:12.704Z,100217.56
2022-12-24T04:22:42.256Z,100228.47
2022-12-24T04:25:11.863Z,100226.59
2022-12-24T04:27:40.519Z,100235.09
2022-12-24T04:30:10.540Z,100245.44
2022-12-24T04:32:39.839Z,100240.66
2022-12-24T04:35:08.823Z,100241.06
2022-12-24T04:37:38.066Z,100247.88
2022-12-24T04:40:09.302Z,100240.69
2022-12-24T04:42:37.644Z,100249.91
2022-12-24T04:45:06.404Z,100248.63
2022-12-24T04:47:35.554Z,100253.81
2022-12-24T04:50:03.898Z,100251.41
2022-12-24T04:52:32.119Z,100253.81
2022-12-24T04:55:00.627Z,100258.78
2022-12-24T04:57:32.534Z,100259.19
2022-12-24T05:00:01.488Z,100264.72
2022-12-24T05:02:31.304Z,100255.09
2022-12-24T05:05:03.315Z,100249.75
2022-12-24T05:07:32.143Z,100252.31
2022-12-24T05:10:09.093Z,100251.78
2022-12-24T05:12:38.585Z,100241.63
2022-12-24T05:15:08.033Z,100247.16
2022-12-24T05:17:36.326Z,100242.94
2022-12-24T05:20:07.647Z,100239.97
2022-12-24T05:22:55.101Z,100243.28
2022-12-24T05:25:41.071Z,100248.81
2022-12-24T05:28:11.970Z,100255.28
2022-12-24T05:30:41.238Z,100259.34
2022-12-24T05:33:09.522Z,100259.84
2022-12-24T05:35:39.213Z,100261.69
2022-12-24T05:38:08.870Z,100257.84
2022-12-24T05:40:37.309Z,100253.25
2022-12-24T05:43:06.307Z,100261.34
2022-12-24T05:45:36.137Z,100276.31
2022-12-24T05:48:05.759Z,100279.09
2022-12-24T05:50:37.199Z,100283.31
2022-12-24T05:53:07.103Z,100277.78
2022-12-24T05:55:35.794Z,100281.69
2022-12-24T05:58:04.492Z,100288.69
2022-12-24T06:00:35.578Z,100289.25
2022-12-24T06:03:03.826Z,100290.56
2022-12-24T06:05:36.225Z,100292.56
2022-12-24T06:08:06.314Z,100294.59
2022-12-24T06:10:34.587Z,100284.44
2022-12-24T06:13:03.102Z,100293.47
2022-12-24T06:15:32.234Z,100301.97
2022-12-24T06:18:03.342Z,100304.16
2022-12-24T06:20:31.374Z,100299.72
2022-12-24T06:23:01.103Z,100308.22
2022-12-24T06:25:31.245Z,100303.78
2022-12-24T06:28:00.067Z,100312.25
2022-12-24T06:30:28.588Z,100311.31
2022-12-24T06:32:56.984Z,100329.22
2022-12-24T06:35:27.647Z,100325.31
2022-12-24T06:37:56.028Z,100336.19
2022-12-24T06:40:24.439Z,100340.06
2022-12-24T06:42:52.804Z,100333.06
2022-12-24T06:45:20.957Z,100336.72
2022-12-24T06:47:49.308Z,100345.03
2022-12-24T06:50:20.113Z,100340.22
2022-12-24T06:52:49.621Z,100346.50
2022-12-24T06:55:18.225Z,100340.97
2022-12-24T06:57:48.784Z,100343.56
2022-12-24T07:00:18.416Z,100343.22
2022-12-24T07:02:46.683Z,100351.31
2022-12-24T07:05:18.922Z,100353.34
2022-12-24T07:07:47.383Z,100361.66
2022-12-24T07:10:19.313Z,100358.31
2022-12-24T07:12:49.208Z,100360.34
2022-12-24T07:15:18.631Z,100369.38
2022-12-24T07:17:49.241Z,100368.66
2022-12-24T07:20:17.738Z,100359.06
2022-12-24T07:22:46.112Z,100361.09
2022-12-24T07:25:17.458Z,100377.34
2022-12-24T07:27:46.456Z,100380.09
2022-12-24T07:30:16.768Z,100379.19
2022-12-24T07:32:45.130Z,100382.50
2022-12-24T07:35:13.665Z,100388.03
2022-12-24T07:37:43.454Z,100391.75
2022-12-24T07:40:12.595Z,100381.25
2022-12-24T07:42:42.801Z,100385.66
2022-12-24T07:45:14.795Z,100377.19
2022-12-24T07:47:44.276Z,100384.56
2022-12-24T07:50:14.166Z,100392.13
2022-12-24T07:52:43.871Z,100389.69
2022-12-24T07:55:12.461Z,100399.50
2022-12-24T07:57:43.277Z,100393.59
2022-12-24T08:00:12.163Z,100403.72
2022-12-24T08:02:41.811Z,100410.56
2022-12-24T08:05:11.083Z,100414.25
2022-12-24T08:07:39.377Z,100418.50
2022-12-24T08:10:09.168Z,100408.19
2022-12-24T08:12:38.936Z,100418.50
2022-12-24T08:15:09.536Z,100410.59
2022-12-24T08:17:37.935Z,100411.50
2022-12-24T08:20:08.864Z,100423.50
2022-12-24T08:22:38.090Z,100432.22
2022-12-24T08:25:07.001Z,100426.31
2022-12-24T08:27:35.923Z,100424.13
2022-12-24T08:30:05.229Z,100433.34
2022-12-24T08:32:36.334Z,100430.41
2022-12-24T08:35:05.382Z,100427.28
2022-12-24T08:37:33.633Z,100432.47
2022-12-24T08:40:01.937Z,100425.09
2022-12-24T08:42:34.476Z,100421.22
2022-12-24T08:45:05.004Z,100418.44
2022-12-24T08:47:33.149Z,100429.53
2022-12-24T08:50:04.463Z,100431.97
2022-12-24T08:52:32.575Z,100430.69
2022-12-24T08:55:01.425Z,100432.38
2022-12-24T08:57:30.912Z,100427.72
2022-12-24T08:59:59.114Z,100435.47
2022-12-24T09:02:27.455Z,100440.84
2022-12-24T09:04:57.578Z,100439.13
2022-12-24T09:07:27.229Z,100429.13
2022-12-24T09:09:55.707Z,100436.31
2022-12-24T09:12:24.277Z,100443.69
2022-12-24T09:14:59.499Z,100446.22
2022-12-24T09:17:31.312Z,100453.53
2022-12-24T09:20:00.202Z,100463.09
2022-12-24T09:22:32.445Z,100466.28
2022-12-24T09:25:00.738Z,100470.09
2022-12-24T09:27:31.420Z,100474.09
2022-12-24T09:29:59.695Z,100474.47
2022-12-24T09:32:29.456Z,100477.69
2022-12-24T09:34:57.903Z,100484.91
2022-12-24T09:37:27.063Z,100499.66
2022-12-24T09:39:59.553Z,100502.44
2022-12-24T09:42:39.490Z,100497.44
2022-12-24T09:45:14.877Z,100501.66
2022-12-24T09:47:47.369Z,100502.16
2022-12-24T09:50:27.572Z,100495.31
2022-12-24T09:52:57.597Z,100506.19
2022-12-24T09:55:31.010Z,100521.75
2022-12-24T09:58:02.298Z,100525.00
2022-12-24T10:00:34.425Z,100504.75
2022-12-24T10:03:02.773Z,100505.78
2022-12-24T10:05:42.325Z,100517.25
2022-12-24T10:08:14.801Z,100524.13
2022-12-24T10:10:52.744Z,100531.78
2022-12-24T10:13:39.387Z,100534.72
2022-12-24T10:16:16.824Z,100535.50
2022-12-24T10:18:58.955Z,100531.94
2022-12-24T10:21:40.620Z,100532.81
2022-12-24T10:24:17.737Z,100539.41
2022-12-24T10:26:52.382Z,100524.22
2022-12-24T10:29:48.971Z,100532.66
2022-12-24T10:32:23.347Z,100541.69
2022-12-24T10:34:58.799Z,100538.66
2022-12-24T10:37:31.494Z,100528.84
2022-12-24T10:40:01.688Z,100530.25
2022-12-24T10:42:42.105Z,100533.66
2022-12-24T10:45:17.988Z,100532.97
2022-12-24T10:47:50.957Z,100526.00
2022-12-24T10:50:29.353Z,100520.44
2022-12-24T10:53:05.992Z,100524.22
2022-12-24T10:55:35.237Z,100525.19
2022-12-24T10:58:08.383Z,100526.00
2022-12-24T11:00:38.360Z,100535.53
2022-12-24T11:03:22.104Z,100535.41
2022-12-24T11:06:08.858Z,100525.88
2022-12-24T11:08:38.793Z,100530.03
2022-12-24T11:11:09.089Z,100520.19
2022-12-24T11:13:42.315Z,100515.34
2022-12-24T11:16:19.368Z,100526.50
2022-12-24T11:18:52.590Z,100524.53
2022-12-24T11:21:24.757Z,100525.00
2022-12-24T11:23:56.439Z,100535.47
2022-12-24T11:26:29.190Z,100529.56
2022-12-24T11:29:16.224Z,100528.66
2022-12-24T11:31:52.493Z,100526.13
2022-12-24T11:34:30.270Z,100525.66
2022-12-24T11:37:15.031Z,100516.44
2022-12-24T11:39:47.883Z,100511.41
2022-12-24T11:42:29.475Z,100514.47
2022-12-24T11:45:00.828Z,100513.59
2022-12-24T11:47:36.175Z,100524.22
2022-12-24T11:50:24.331Z,100524.97
2022-12-24T11:53:07.566Z,100521.84
2022-12-24T11:55:45.591Z,100518.72
2022-12-24T11:58:22.688Z,100517.09
2022-12-24T12:00:55.842Z,100524.41
2022-12-24T12:03:33.329Z,100526.47
2022-12-24T12:06:21.401Z,100535.09
2022-12-24T12:08:56.611Z,100537.78
2022-12-24T12:11:27.093Z,100530.75
2022-12-24T12:13:59.995Z,100530.47
2022-12-24T12:16:53.743Z,100534.34
2022-12-24T12:19:26.430Z,100537.16
2022-12-24T12:21:59.009Z,100541.94
2022-12-24T12:24:34.510Z,100548.31
2022-12-24T12:27:08.736Z,100533.91
2022-12-24T12:29:44.437Z,100542.44
2022-12-24T12:32:28.546Z,100544.50
2022-12-24T12:35:05.574Z,100534.34
2022-12-24T12:37:39.182Z,100537.13
2022-12-24T12:40:16.192Z,100538.78
2022-12-24T12:42:54.522Z,100539.00
2022-12-24T12:45:40.475Z,100530.06
2022-12-24T12:48:33.336Z,100538.94
2022-12-24T12:51:10.739Z,100536.13
2022-12-24T12:54:03.361Z,100535.41
2022-12-24T12:56:34.183Z,100540.78
2022-12-24T12:59:10.361Z,100549.13
2022-12-24T13:01:48.314Z,100547.28
2022-12-24T13:04:44.671Z,100538.41
2022-12-24T13:07:42.804Z,100540.44
2022-12-24T13:10:35.581Z,100554.16
2022-12-24T13:13:21.969Z,100540.09
2022-12-24T13:16:16.989Z,100550.28
2022-12-24T13:18:56.250Z,100550.28
2022-12-24T13:21:29.549Z,100558.97
2022-12-24T13:24:07.881Z,100567.28
2022-12-24T13:26:36.741Z,100565.25
2022-12-24T13:29:30.622Z,100561.75
2022-12-24T13:32:47.205Z,100562.09
2022-12-24T13:35:38.784Z,100570.22
2022-12-24T13:38:40.001Z,100569.69
2022-12-24T13:41:50.136Z,100567.47
2022-12-24T13:44:24.033Z,100566.19
2022-12-24T13:47:01.024Z,100569.13
2022-12-24T13:49:36.756Z,100569.69
2022-12-24T13:52:19.941Z,100571.16
2022-12-24T13:55:19.562Z,100572.25
2022-12-24T13:57:54.345Z,100572.06
2022-12-24T14:00:36.839Z,100581.50
2022-12-24T14:03:16.854Z,100576.88
2022-12-24T14:05:49.272Z,100578.72
2022-12-24T14:08:28.306Z,100581.50
2022-12-24T14:11:07.050Z,100580.41
2022-12-24T14:14:10.369Z,100595.00
2022-12-24T14:16:44.996Z,100580.38
2022-12-24T14:19:16.249Z,100581.31
2022-12-24T14:21:53.031Z,100580.19
2022-12-24T14:24:25.414Z,100576.47
2022-12-24T14:26:59.110Z,100576.84
2022-12-24T14:29:32.099Z,100580.13
2022-12-24T14:32:04.267Z,100587.88
2022-12-24T14:34:34.047Z,100582.69
2022-12-24T14:37:05.744Z,100598.00
2022-12-24T14:39:37.255Z,100599.31
2022-12-24T14:42:24.659Z,100596.72
2022-12-24T14:45:02.348Z,100607.22
2022-12-24T14:47:39.372Z,100595.22
2022-12-24T14:50:37.249Z,100594.66
2022-12-24T14:53:19.312Z,100592.97
2022-12-24T14:55:50.240Z,100598.13
2022-12-24T14:58:25.115Z,100593.69
2022-12-24T15:00:56.693Z,100598.09
2022-12-24T15:03:27.994Z,100597.91
2022-12-24T15:05:58.946Z,100596.97
2022-12-24T15:08:34.251Z,100607.84
2022-12-24T15:11:05.568Z,100608.94
2022-12-24T15:13:38.878Z,100614.28
2022-12-24T15:16:13.131Z,100622.38
2022-12-24T15:18:51.019Z,100637.53
2022-12-24T15:21:24.934Z,100629.75
2022-12-24T15:23:55.950Z,100639.16
2022-12-24T15:26:27.774Z,100640.44
2022-12-24T15:29:03.787Z,100643.03
2022-12-24T15:31:33.149Z,100651.31
2022-12-24T15:34:01.513Z,100657.41
2022-12-24T15:36:34.392Z,100650.38
2022-12-24T15:39:06.272Z,100645.91
2022-12-24T15:42:00.394Z,100651.47
2022-12-24T15:44:38.189Z,100662.72
2022-12-24T15:47:10.373Z,100671.03
2022-12-24T15:49:40.448Z,100677.31
2022-12-24T15:52:12.123Z,100671.03
2022-12-24T15:54:45.859Z,100672.34
2022-12-24T15:57:23.542Z,100662.31
2022-12-24T15:59:55.050Z,100667.84
2022-12-24T16:02:36.681Z,100672.47
2022-12-24T16:05:30.157Z,100663.41
2022-12-24T16:08:08.698Z,100667.69
2022-12-24T16:10:40.596Z,100667.13
2022-12-24T16:13:19.628Z,100673.22
2022-12-24T16:15:58.023Z,100677.25
2022-12-24T16:18:33.263Z,100678.56
2022-12-24T16:21:03.011Z,100677.63
2022-12-24T16:23:38.193Z,100673.91
2022-12-24T16:26:06.972Z,100677.75
2022-12-24T16:28:35.475Z,100679.03
2022-12-24T16:31:06.038Z,100672.03
2022-12-24T16:33:39.102Z,100673.28
2022-12-24T16:36:08.407Z,100677.34
2022-12-24T16:38:57.835Z,100671.63
2022-12-24T16:41:28.714Z,100675.69
2022-12-24T16:43:58.437Z,100664.03
2022-12-24T16:46:28.320Z,100657.56
2022-12-24T16:48:56.675Z,100658.66
2022-12-24T16:51:25.509Z,100666.97
2022-12-24T16:53:54.060Z,100671.75
2022-12-24T16:56:23.412Z,100681.31
2022-12-24T16:58:52.023Z,100684.84
2022-12-24T17:01:21.632Z,100691.88
2022-12-24T17:03:51.683Z,100687.28
2022-12-24T17:06:20.228Z,100686.34
2022-12-24T17:08:50.062Z,100688.16
2022-12-24T17:11:18.473Z,100694.00
2022-12-24T17:13:46.854Z,100699.38
2022-12-24T17:16:15.207Z,100701.38
2022-12-24T17:18:43.444Z,100700.63
2022-12-24T17:21:15.735Z,100699.16
2022-12-24T17:23:44.402Z,100705.22
2022-12-24T17:26:15.243Z,100694.31
2022-12-24T17:28:44.184Z,100697.38
2022-12-24T17:31:16.734Z,100699.03
2022-12-24T17:33:46.475Z,100715.00
2022-12-24T17:36:17.883Z,100711.06
2022-12-24T17:38:47.082Z,100710.66
2022-12-24T17:41:17.432Z,100704.34
2022-12-24T17:43:51.036Z,100714.69
2022-12-24T17:46:22.556Z,100714.16
2022-12-24T17:48:53.567Z,100713.94
2022-12-24T17:51:25.045Z,100714.41
2022-12-24T17:53:54.755Z,100721.72
2022-12-24T17:56:23.275Z,100724.69
2022-12-24T17:58:51.401Z,100718.09
2022-12-24T18:01:21.752Z,100719.94
2022-12-24T18:03:52.086Z,100714.41
2022-12-24T18:06:21.536Z,100715.13
2022-12-24T18:08:52.157Z,100708.00
2022-12-24T18:11:24.476Z,100708.09
2022-12-24T18:13:52.895Z,100710.34
2022-12-24T18:16:23.340Z,100705.53
2022-12-24T18:18:52.842Z,100701.09
2022-12-24T18:21:24.213Z,100706.09
2022-12-24T18:23:55.420Z,100700.56
2022-12-24T18:26:28.485Z,100700.56
2022-12-24T18:28:58.690Z,100700.56
2022-12-24T18:31:29.599Z,100706.09
2022-12-24T18:33:58.126Z,100707.56
2022-12-24T18:36:28.223Z,100713.84
2022-12-24T18:39:01.256Z,100705.22
2022-12-24T18:41:31.431Z,100711.56
2022-12-24T18:44:00.626Z,100707.50
2022-12-24T18:46:31.563Z,100709.00
2022-12-24T18:49:01.718Z,100697.53
2022-12-24T18:51:36.884Z,100698.81
2022-12-24T18:54:09.654Z,100702.66
2022-12-24T18:56:38.544Z,100718.19
2022-12-24T18:59:07.038Z,100712.66
2022-12-24T19:01:37.533Z,100720.38
2022-12-24T19:04:10.547Z,100709.00
2022-12-24T19:06:47.283Z,100719.66
2022-12-24T19:09:22.562Z,100716.69
2022-12-24T19:11:50.893Z,100725.53
2022-12-24T19:14:20.907Z,100720.31
2022-12-24T19:16:51.079Z,100729.16
2022-12-24T19:19:23.926Z,100732.25
2022-12-24T19:21:52.892Z,100742.56
2022-12-24T19:24:26.346Z,100745.84
2022-12-24T19:26:56.265Z,100748.41
2022-12-24T19:29:27.414Z,100747.88
2022-12-24T19:31:55.602Z,100755.75
2022-12-24T19:34:25.167Z,100750.75
2022-12-24T19:36:55.079Z,100741.00
2022-12-24T19:39:31.563Z,100748.88
2022-12-24T19:42:01.887Z,100752.88
2022-12-24T19:44:32.230Z,100746.84
2022-12-24T19:47:01.448Z,100753.09
2022-12-24T19:49:32.143Z,100761.41
2022-12-24T19:52:01.949Z,100757.13
2022-12-24T19:54:32.425Z,100758.19
2022-12-24T19:57:02.524Z,100761.16
2022-12-24T19:59:31.770Z,100768.41
2022-12-24T20:02:00.136Z,100766.94
2022-12-24T20:04:30.504Z,100773.19
2022-12-24T20:07:00.691Z,100789.25
2022-12-24T20:09:32.795Z,100793.72
2022-12-24T20:12:05.329Z,100788.78
2022-12-24T20:14:34.469Z,100792.50
2022-12-24T20:17:04.337Z,100802.72
2022-12-24T20:19:32.765Z,100797.53
2022-12-24T20:22:03.237Z,100789.44
2022-12-24T20:24:31.962Z,100790.69
2022-12-24T20:27:00.726Z,100784.22
2022-12-24T20:29:39.847Z,100781.53
2022-12-24T20:32:09.152Z,100770.66
2022-12-24T20:34:40.610Z,100768.97
2022-12-24T20:37:10.579Z,100771.09
2022-12-24T20:39:38.768Z,100758.94
2022-12-24T20:42:07.993Z,100747.47
2022-12-24T20:44:38.189Z,100755.03
2022-12-24T20:47:09.719Z,100748.53
2022-12-24T20:49:38.256Z,100762.59
2022-12-24T20:52:06.989Z,100759.94
2022-12-24T20:54:35.647Z,100751.75
2022-12-24T20:57:04.140Z,100758.59
2022-12-24T20:59:34.134Z,100761.88
2022-12-24T21:02:04.142Z,100760.06
2022-12-24T21:04:34.160Z,100767.22
2022-12-24T21:07:05.134Z,100759.44
2022-12-24T21:09:33.647Z,100760.13
2022-12-24T21:12:19.632Z,100764.16
2022-12-24T21:14:48.088Z,100766.38
2022-12-24T21:17:20.506Z,100769.16
2022-12-24T21:19:49.051Z,100775.84
2022-12-24T21:22:18.045Z,100764.56
2022-12-24T21:24:46.283Z,100765.66
2022-12-24T21:27:15.154Z,100771.50
2022-12-24T21:29:43.337Z,100763.41
2022-12-24T21:32:12.227Z,100762.88
2022-12-24T21:34:42.882Z,100761.41
2022-12-24T21:37:11.551Z,100768.94
2022-12-24T21:39:40.004Z,100768.19
2022-12-24T21:42:08.850Z,100766.06
2022-12-24T21:44:37.746Z,100758.81
2022-12-24T21:47:07.856Z,100763.09
2022-12-24T21:50:05.236Z,100756.91
2022-12-24T21:52:34.993Z,100759.25
2022-12-24T21:55:02.240Z,100757.97
2022-12-24T21:57:48.493Z,100752.09
2022-12-24T22:00:24.375Z,100750.28
2022-12-24T22:03:02.314Z,100732.69
2022-12-24T22:05:35.042Z,100722.28
2022-12-24T22:08:23.366Z,100725.41
2022-12-24T22:11:09.101Z,100723.91
2022-12-24T22:13:37.875Z,100720.00
2022-12-24T22:16:07.686Z,100724.59
2022-12-24T22:18:35.777Z,100727.75
2022-12-24T22:21:03.999Z,100717.75
2022-12-24T22:23:40.409Z,100725.84
2022-12-24T22:26:13.978Z,100727.97
2022-12-24T22:28:42.387Z,100723.97
2022-12-24T22:31:18.379Z,100735.84
2022-12-24T22:33:47.027Z,100734.97
2022-12-24T22:36:15.763Z,100741.47
2022-12-24T22:38:46.179Z,100736.03
2022-12-24T22:41:15.804Z,100727.34
2022-12-24T22:43:45.264Z,100733.69
2022-12-24T22:46:17.558Z,100734.03
2022-12-24T22:48:46.989Z,100734.34
2022-12-24T22:51:20.337Z,100737.13
2022-12-24T22:53:50.437Z,100748.38
2022-12-24T22:56:21.351Z,100739.00
2022-12-24T22:58:54.726Z,100742.84
2022-12-24T23:01:33.014Z,100754.53
2022-12-24T23:04:01.537Z,100744.75
2022-12-24T23:06:31.564Z,100743.47
2022-12-24T23:09:01.322Z,100742.19
2022-12-24T23:11:29.303Z,100747.72
2022-12-24T23:14:16.108Z,100744.63
2022-12-24T23:16:44.400Z,100744.97
2022-12-24T23:19:12.879Z,100732.81
2022-12-24T23:21:41.573Z,100734.09
2022-12-24T23:24:12.101Z,100723.38
2022-12-24T23:26:41.016Z,100724.44
2022-12-24T23:29:10.283Z,100734.03
2022-12-24T23:31:39.423Z,100732.53
2022-12-24T23:34:43.503Z,100741.78
2022-12-24T23:37:12.406Z,100738.88
2022-12-24T23:39:50.047Z,100741.13
2022-12-24T23:42:18.215Z,100734.50
2022-12-24T23:44:46.621Z,100731.28
2022-12-24T23:47:15.025Z,100733.50
2022-12-24T23:49:45.395Z,100734.56
2022-12-24T23:52:14.618Z,100740.25
2022-12-24T23:54:42.886Z,100745.56
2022-12-24T23:57:12.554Z,100740.78
2022-12-24T23:59:40.562Z,100744.50
